Time;durP1;ratioP1;P1;durP2;ratioP2;P2;SDS_P1;SDS_P2;PMS_P1;PMS_P2;Temp;Humidity;BMP_temperature;BMP_pressure;BME280_temperature;BME280_humidity;BME280_pressure;Samples;Min_cycle;Max_cycle;Signal;HPM_P1;HPM_P2
2021/12/05 00:21:28;;;;;;;2.90;2.70;;;;;;;2.26;100.00;96596.22;4997361;28;20204;-71
2021/12/05 00:24:01;;;;;;;2.60;2.50;;;;;;;2.19;100.00;96610.84;4989882;28;20654;-71
2021/12/05 00:26:31;;;;;;;2.87;2.70;;;;;;;2.21;100.00;96616.75;4960760;28;20231;-72
2021/12/05 00:29:18;;;;;;;3.23;3.03;;;;;;;2.15;100.00;96618.97;5017456;28;20427;-71
2021/12/05 00:31:58;;;;;;;4.00;2.90;;;;;;;2.15;100.00;96628.63;4984237;28;20200;-71
2021/12/05 00:34:47;;;;;;;3.67;3.37;;;;;;;2.15;100.00;96634.66;4995315;28;20254;-71
2021/12/05 00:46:00;;;;;;;3.47;3.27;;;;;;;2.23;100.00;96640.94;4997793;28;20508;-72
2021/12/05 01:08:10;;;;;;;3.50;3.20;;;;;;;2.02;100.00;96692.47;5017520;28;20214;-71
2021/12/05 01:13:43;;;;;;;2.97;2.77;;;;;;;1.96;100.00;96706.13;4969015;28;20215;-72
2021/12/05 01:16:14;;;;;;;3.47;3.17;;;;;;;1.86;100.00;96703.50;4970846;28;20207;-72
2021/12/05 01:18:42;;;;;;;4.63;3.17;;;;;;;1.90;100.00;96704.06;5018461;28;20293;-72
2021/12/05 01:21:14;;;;;;;4.80;2.73;;;;;;;1.83;100.00;96714.25;4998357;28;20203;-72
2021/12/05 01:23:55;;;;;;;3.40;3.10;;;;;;;1.82;100.00;96711.78;5023785;28;20496;-72
2021/12/05 01:26:27;;;;;;;3.10;2.80;;;;;;;1.83;100.00;96716.88;5025502;28;21196;-72
2021/12/05 01:29:07;;;;;;;4.30;3.80;;;;;;;1.78;100.00;96708.63;4968584;28;20212;-71
2021/12/05 01:31:46;;;;;;;4.97;3.13;;;;;;;1.73;100.00;96710.84;4996702;28;20231;-72
2021/12/05 01:34:27;;;;;;;3.37;3.07;;;;;;;1.67;100.00;96714.81;5020059;28;20218;-72
2021/12/05 01:37:06;;;;;;;3.03;2.60;;;;;;;1.60;100.00;96703.28;5003544;28;20259;-72
2021/12/05 01:39:50;;;;;;;5.23;3.17;;;;;;;1.53;100.00;96697.81;5025076;28;20229;-72
2021/12/05 01:51:41;;;;;;;2.80;2.60;;;;;;;1.29;100.00;96693.00;4960887;28;20229;-72
2021/12/05 02:10:52;;;;;;;2.87;2.50;;;;;;;1.07;100.00;96676.66;5029657;28;20227;-72
2021/12/05 02:30:27;;;;;;;2.77;2.57;;;;;;;0.97;100.00;96681.06;5001554;28;20312;-72
2021/12/05 02:36:09;;;;;;;2.70;2.50;;;;;;;0.84;100.00;96687.34;4989137;28;20211;-72
2021/12/05 02:41:34;;;;;;;3.33;2.77;;;;;;;0.81;100.00;96692.81;5017087;28;20669;-72
2021/12/05 02:44:05;;;;;;;2.40;2.30;;;;;;;0.78;100.00;96692.28;4990501;28;20228;-72
2021/12/05 02:46:33;;;;;;;3.87;2.53;;;;;;;0.75;100.00;96701.19;4962045;28;20224;-72
2021/12/05 02:49:05;;;;;;;6.00;3.90;;;;;;;0.62;100.00;96701.44;4989229;28;20219;-72
2021/12/05 02:51:33;;;;;;;3.23;2.93;;;;;;;0.76;100.00;96695.03;5020589;28;20228;-72
2021/12/05 02:54:07;;;;;;;5.27;3.00;;;;;;;0.75;100.00;96702.97;4980848;28;20227;-72
2021/12/05 02:56:40;;;;;;;2.80;2.53;;;;;;;0.75;100.00;96687.31;5021292;28;20195;-72
2021/12/05 02:59:19;;;;;;;4.10;2.57;;;;;;;0.70;100.00;96696.38;5014975;28;20443;-72
2021/12/05 03:01:52;;;;;;;4.57;2.73;;;;;;;0.62;100.00;96688.41;4941685;28;20583;-72
2021/12/05 03:04:24;;;;;;;2.87;2.70;;;;;;;0.62;100.00;96698.03;4999969;28;21857;-72
2021/12/05 03:06:53;;;;;;;3.23;2.40;;;;;;;0.61;100.00;96689.34;4998154;28;20463;-72
2021/12/05 03:09:23;;;;;;;6.13;2.50;;;;;;;0.45;100.00;96687.25;4998204;28;20226;-72
2021/12/05 03:11:52;;;;;;;4.20;2.57;;;;;;;0.39;100.00;96687.78;5017820;28;20228;-72
2021/12/05 03:14:21;;;;;;;2.47;2.30;;;;;;;0.35;100.00;96697.63;5003615;28;20692;-72
2021/12/05 03:16:56;;;;;;;3.90;2.20;;;;;;;0.37;100.00;96685.28;5022827;28;20215;-72
2021/12/05 03:19:25;;;;;;;3.00;2.60;;;;;;;0.45;100.00;96696.88;4960833;28;20455;-72
2021/12/05 03:21:53;;;;;;;2.50;2.30;;;;;;;0.27;100.00;96700.91;5006519;28;20211;-72
2021/12/05 03:24:24;;;;;;;4.50;2.70;;;;;;;0.38;100.00;96702.63;4993508;28;20253;-72
2021/12/05 03:26:54;;;;;;;5.23;2.73;;;;;;;0.32;100.00;96697.91;5022506;28;20298;-72
2021/12/05 03:29:23;;;;;;;2.87;2.53;;;;;;;0.30;100.00;96696.41;5017150;28;20234;-72
2021/12/05 03:31:53;;;;;;;2.50;2.40;;;;;;;0.30;100.00;96685.97;4997865;28;20228;-72
2021/12/05 03:34:21;;;;;;;2.77;2.57;;;;;;;0.22;100.00;96689.22;4958696;28;20878;-72
2021/12/05 03:36:52;;;;;;;5.07;2.80;;;;;;;0.12;100.00;96686.56;4978491;28;20211;-72
2021/12/05 03:39:22;;;;;;;5.97;2.90;;;;;;;0.14;100.00;96684.66;5019127;28;20238;-72
2021/12/05 03:41:52;;;;;;;2.13;2.03;;;;;;;0.21;100.00;96688.41;5000778;28;20220;-72
2021/12/05 03:44:24;;;;;;;4.13;2.67;;;;;;;0.19;100.00;96699.91;4999423;28;21020;-72
2021/12/05 03:46:54;;;;;;;3.47;2.83;;;;;;;0.19;100.00;96699.91;5021360;28;20211;-72
2021/12/05 03:49:23;;;;;;;4.43;2.33;;;;;;;0.22;100.00;96712.69;4957923;28;20301;-72
2021/12/05 03:54:43;;;;;;;3.27;2.50;;;;;;;0.20;100.00;96698.97;4964465;28;20521;-72
2021/12/05 03:57:11;;;;;;;4.93;2.60;;;;;;;0.25;100.00;96707.22;4957807;28;20213;-72
2021/12/05 03:59:40;;;;;;;3.70;3.50;;;;;;;0.24;100.00;96709.00;4988668;28;20201;-72
2021/12/05 04:02:09;;;;;;;3.17;2.37;;;;;;;0.26;100.00;96711.47;4952108;28;20607;-72
2021/12/05 04:04:38;;;;;;;2.23;2.13;;;;;;;0.29;100.00;96713.81;4927578;28;20295;-72
2021/12/05 04:07:06;;;;;;;2.57;1.80;;;;;;;0.30;100.00;96714.66;4950132;28;20213;-72
2021/12/05 04:09:34;;;;;;;4.13;2.23;;;;;;;0.30;100.00;96723.28;4991214;28;20209;-72
2021/12/05 04:12:04;;;;;;;2.40;2.17;;;;;;;0.33;100.00;96717.78;4966240;28;20312;-72
2021/12/05 04:14:35;;;;;;;2.57;2.37;;;;;;;0.39;100.00;96719.06;4985363;28;20290;-72
2021/12/05 04:17:06;;;;;;;2.97;2.40;;;;;;;0.43;100.00;96723.91;4980227;28;20201;-73
2021/12/05 04:19:34;;;;;;;3.40;2.23;;;;;;;0.55;100.00;96715.97;4898856;28;20769;-72
2021/12/05 04:22:03;;;;;;;6.73;2.87;;;;;;;0.64;100.00;96719.56;4957421;28;20428;-73
2021/12/05 04:24:31;;;;;;;3.00;2.70;;;;;;;0.61;100.00;96722.44;4955897;28;20244;-73
2021/12/05 04:27:00;;;;;;;5.03;2.10;;;;;;;0.71;100.00;96729.31;4975219;28;20909;-73
2021/12/05 04:29:31;;;;;;;2.37;2.20;;;;;;;0.80;100.00;96740.72;4962036;28;20270;-73
2021/12/05 04:31:59;;;;;;;2.73;2.13;;;;;;;0.85;100.00;96746.38;4972873;28;20979;-73
2021/12/05 04:34:29;;;;;;;2.07;2.00;;;;;;;0.88;100.00;96739.22;4927644;28;21085;-73
2021/12/05 04:36:57;;;;;;;3.43;2.20;;;;;;;0.98;100.00;96740.09;4963239;28;20206;-73
2021/12/05 04:39:26;;;;;;;6.80;2.70;;;;;;;1.08;100.00;96740.94;4959614;28;20703;-72
2021/12/05 04:41:54;;;;;;;1.90;1.60;;;;;;;1.13;100.00;96741.34;4945436;28;20217;-73
2021/12/05 04:44:24;;;;;;;4.97;1.90;;;;;;;1.15;100.00;96739.44;4955132;28;20248;-72
2021/12/05 04:46:53;;;;;;;4.47;2.13;;;;;;;1.08;100.00;96746.16;4972020;28;20215;-72
2021/12/05 04:49:21;;;;;;;1.73;1.50;;;;;;;1.03;100.00;96744.91;4917731;28;20339;-73
2021/12/05 04:51:49;;;;;;;2.27;2.10;;;;;;;1.06;100.00;96752.44;4977127;28;20225;-69
2021/12/05 04:54:20;;;;;;;2.70;2.13;;;;;;;1.03;100.00;96750.13;4953666;28;20468;-69
2021/12/05 04:56:49;;;;;;;2.83;2.03;;;;;;;0.96;100.00;96753.25;4947651;28;20430;-70
2021/12/05 04:59:18;;;;;;;2.97;2.77;;;;;;;0.97;100.00;96754.91;4956891;28;20217;-69
2021/12/05 05:01:49;;;;;;;4.87;2.33;;;;;;;1.03;100.00;96753.56;4961570;28;20370;-69
2021/12/05 05:04:25;;;;;;;2.20;2.07;;;;;;;0.98;100.00;96755.75;4984138;28;20228;-69
2021/12/05 05:06:58;;;;;;;3.73;1.80;;;;;;;1.00;100.00;96756.44;4954220;28;20790;-69
2021/12/05 05:09:26;;;;;;;2.30;2.00;;;;;;;0.91;100.00;96749.41;4965477;28;20212;-69
2021/12/05 05:11:55;;;;;;;3.90;2.50;;;;;;;0.91;100.00;96754.63;4984927;28;20236;-70
2021/12/05 05:14:23;;;;;;;6.73;1.93;;;;;;;0.97;100.00;96754.09;4983987;28;20224;-69
2021/12/05 05:16:54;;;;;;;2.27;1.93;;;;;;;0.97;100.00;96764.53;4955072;28;20439;-69
2021/12/05 05:19:28;;;;;;;3.43;2.37;;;;;;;1.04;100.00;96768.25;4967650;28;20575;-69
2021/12/05 05:22:04;;;;;;;5.03;2.10;;;;;;;1.00;100.00;96765.09;4899440;28;20225;-69
2021/12/05 05:47:27;;;;;;;2.20;2.00;;;;;;;0.50;100.00;96752.84;4916422;28;20221;-68
2021/12/05 05:49:58;;;;;;;3.10;2.10;;;;;;;0.47;100.00;96762.72;4981809;28;20407;-67
2021/12/05 05:52:29;;;;;;;3.83;2.20;;;;;;;0.31;100.00;96763.19;4905672;28;20622;-67
2021/12/05 05:54:59;;;;;;;1.80;1.70;;;;;;;0.22;100.00;96762.19;4982960;28;20221;-67
2021/12/05 05:57:33;;;;;;;2.20;2.00;;;;;;;0.14;100.00;96765.44;4948404;28;20896;-67
2021/12/05 06:00:08;;;;;;;2.10;2.00;;;;;;;0.08;100.00;96764.19;4981320;28;20523;-66
2021/12/05 06:05:23;;;;;;;4.63;2.67;;;;;;;-0.04;100.00;96770.41;4959537;28;20292;-67
2021/12/05 06:07:52;;;;;;;3.23;2.10;;;;;;;-0.11;100.00;96769.25;4931800;28;20429;-68
2021/12/05 06:10:22;;;;;;;2.37;2.17;;;;;;;-0.17;100.00;96763.63;4958319;28;20217;-67
2021/12/05 06:12:52;;;;;;;2.80;2.43;;;;;;;-0.23;100.00;96769.31;4966511;28;20248;-68
2021/12/05 06:15:22;;;;;;;4.90;2.10;;;;;;;-0.22;100.00;96764.94;4992879;28;20224;-66
2021/12/05 06:17:52;;;;;;;2.17;2.07;;;;;;;-0.26;100.00;96772.19;4954499;28;20419;-67
2021/12/05 06:20:24;;;;;;;4.73;2.00;;;;;;;-0.33;100.00;96764.03;4938492;28;20240;-68
2021/12/05 06:22:58;;;;;;;3.77;2.20;;;;;;;-0.35;100.00;96762.53;4876488;28;20208;-68
2021/12/05 06:25:28;;;;;;;4.70;2.17;;;;;;;-0.33;100.00;96751.03;4956389;28;20675;-68
2021/12/05 06:28:00;;;;;;;2.27;2.10;;;;;;;-0.36;100.00;96760.88;4968665;28;20335;-67
2021/12/05 06:30:38;;;;;;;3.20;2.90;;;;;;;-0.36;100.00;96758.28;4976834;28;20730;-67
2021/12/05 06:41:48;;;;;;;2.53;2.33;;;;;;;-0.27;100.00;96767.94;4930513;28;20616;-68
2021/12/05 06:47:02;;;;;;;2.40;2.23;;;;;;;-0.43;100.00;96778.78;4979814;28;20205;-67
2021/12/05 06:49:31;;;;;;;2.50;1.80;;;;;;;-0.52;100.00;96777.72;4939458;28;20216;-66
2021/12/05 06:51:59;;;;;;;2.87;2.30;;;;;;;-0.48;100.00;96783.53;4978035;28;20410;-68
2021/12/05 06:54:28;;;;;;;3.70;3.10;;;;;;;-0.46;100.00;96786.84;4926850;28;20237;-68
2021/12/05 06:56:57;;;;;;;6.60;3.80;;;;;;;-0.42;100.00;96784.78;4944671;28;21881;-67
2021/12/05 06:59:24;;;;;;;5.73;4.80;;;;;;;-0.32;100.00;96783.91;4981946;28;20920;-69
2021/12/05 07:01:52;;;;;;;2.37;2.17;;;;;;;-0.27;100.00;96793.13;4975178;28;20457;-66
2021/12/05 07:04:44;;;;;;;2.50;2.30;;;;;;;-0.17;100.00;96794.06;4957809;28;20228;-68
2021/12/05 07:07:18;;;;;;;3.07;2.60;;;;;;;-0.04;100.00;96796.44;4987355;28;20307;-67
2021/12/05 07:09:49;;;;;;;4.80;4.03;;;;;;;0.06;100.00;96791.31;4922570;28;20232;-67
2021/12/05 07:12:54;;;;;;;3.30;2.43;;;;;;;0.12;100.00;96801.22;4943583;28;20217;-68
2021/12/05 07:15:31;;;;;;;5.43;2.30;;;;;;;0.07;100.00;96800.78;4957004;28;20228;-65
2021/12/05 07:21:00;;;;;;;2.70;2.50;;;;;;;0.03;100.00;96807.19;4953456;28;20232;-66
2021/12/05 07:23:43;;;;;;;2.67;2.20;;;;;;;0.08;100.00;96810.25;4982724;28;20204;-66
2021/12/05 07:26:17;;;;;;;4.27;2.50;;;;;;;0.21;100.00;96816.09;4931158;28;20754;-65
2021/12/05 07:43:02;;;;;;;12.63;10.60;;;;;;;0.54;100.00;96842.06;4965126;28;20363;-66
2021/12/05 07:45:35;;;;;;;13.90;7.83;;;;;;;0.99;100.00;96843.50;4956051;28;20224;-65
2021/12/05 07:48:10;;;;;;;70.93;37.43;;;;;;;0.99;100.00;96846.09;4956756;28;20210;-66
2021/12/05 07:50:46;;;;;;;39.70;23.27;;;;;;;0.82;100.00;96842.34;4929321;28;20204;-65
2021/12/05 07:53:21;;;;;;;16.27;9.60;;;;;;;0.76;100.00;96838.47;4957196;28;20240;-65
2021/12/05 07:55:53;;;;;;;5.77;4.87;;;;;;;0.64;100.00;96842.13;4981855;28;20699;-66
2021/12/05 07:58:47;;;;;;;2.93;2.70;;;;;;;0.65;100.00;96843.78;4901917;28;20217;-65
2021/12/05 08:15:12;;;;;;;5.10;3.00;;;;;;;0.34;100.00;96872.41;4940684;28;20304;-67
2021/12/05 08:17:40;;;;;;;3.60;3.27;;;;;;;0.51;100.00;96856.16;4989546;28;20207;-66
2021/12/05 08:20:11;;;;;;;5.43;3.67;;;;;;;0.51;100.00;96861.38;4961002;28;20847;-67
2021/12/05 08:22:39;;;;;;;3.77;3.50;;;;;;;0.48;100.00;96855.63;4978967;28;20204;-67
2021/12/05 08:25:11;;;;;;;3.70;2.93;;;;;;;0.46;100.00;96853.13;4943308;28;20643;-67
2021/12/05 08:27:46;;;;;;;5.47;5.07;;;;;;;0.45;100.00;96848.88;4960261;28;20662;-67
2021/12/05 08:30:25;;;;;;;5.17;4.67;;;;;;;0.52;100.00;96864.84;4957124;28;20595;-68
2021/12/05 08:33:13;;;;;;;7.43;3.77;;;;;;;0.59;100.00;96865.16;4964238;28;20558;-68
2021/12/05 10:07:47;;;;;;;2.70;2.50;;;;;;;2.51;100.00;96816.19;4965126;28;21919;-67
2021/12/05 10:10:28;;;;;;;4.93;2.70;;;;;;;2.58;100.00;96815.47;4967810;28;20328;-67
2021/12/05 10:13:06;;;;;;;2.63;2.53;;;;;;;2.69;100.00;96821.50;4934781;28;20701;-67
2021/12/05 10:15:49;;;;;;;3.17;2.83;;;;;;;2.74;100.00;96819.25;4975938;28;20744;-65
2021/12/05 10:35:34;;;;;;;2.60;2.40;;;;;;;3.03;100.00;96800.84;4981026;28;20332;-69
2021/12/05 10:38:06;;;;;;;3.20;2.87;;;;;;;3.03;100.00;96797.38;4978705;28;20575;-69
2021/12/05 10:40:39;;;;;;;3.40;2.57;;;;;;;2.94;100.00;96806.91;4964774;28;20285;-70
2021/12/05 10:43:14;;;;;;;3.27;2.60;;;;;;;2.87;100.00;96811.09;4963997;28;20212;-70
2021/12/05 10:45:43;;;;;;;2.17;2.07;;;;;;;2.94;100.00;96816.59;4976863;28;20415;-69
2021/12/05 10:48:21;;;;;;;2.70;2.50;;;;;;;2.91;100.00;96809.84;4908935;28;20224;-66
2021/12/05 10:50:50;;;;;;;2.50;2.30;;;;;;;2.90;100.00;96816.03;4979646;28;20201;-67
2021/12/05 10:53:27;;;;;;;2.37;2.17;;;;;;;2.95;100.00;96816.41;4987817;28;20540;-67
2021/12/05 10:55:59;;;;;;;1.97;1.87;;;;;;;3.02;100.00;96821.91;4972230;28;20233;-66
2021/12/05 10:58:37;;;;;;;2.97;1.87;;;;;;;3.06;100.00;96823.25;4983437;28;20231;-66
2021/12/05 11:01:09;;;;;;;2.37;1.60;;;;;;;3.11;100.00;96823.66;4964135;28;20840;-66
2021/12/05 11:03:38;;;;;;;2.60;2.40;;;;;;;3.30;100.00;96824.53;4922409;28;20394;-66
2021/12/05 11:06:35;;;;;;;1.60;1.50;;;;;;;3.43;100.00;96825.00;4957877;28;20216;-66
2021/12/05 11:09:11;;;;;;;1.67;1.57;;;;;;;3.47;100.00;96820.28;4966778;28;20295;-66
2021/12/05 11:11:42;;;;;;;4.80;1.97;;;;;;;3.50;100.00;96816.53;4954040;28;20200;-66
2021/12/05 11:14:15;;;;;;;3.47;2.10;;;;;;;3.55;100.00;96822.16;4983191;28;20247;-67
2021/12/05 11:16:49;;;;;;;4.53;2.10;;;;;;;3.68;100.00;96813.91;4980181;28;20339;-67
2021/12/05 11:19:22;;;;;;;1.90;1.80;;;;;;;3.67;100.00;96817.53;4930613;28;20228;-66
2021/12/05 11:21:54;;;;;;;2.60;2.40;;;;;;;3.88;100.00;96819.84;4979368;28;20201;-66
2021/12/05 11:24:27;;;;;;;2.73;1.87;;;;;;;3.84;100.00;96821.94;4959307;28;20547;-66
2021/12/05 11:27:12;;;;;;;5.67;2.90;;;;;;;3.99;100.00;96814.38;4965419;28;20264;-66
2021/12/05 11:30:00;;;;;;;3.33;2.57;;;;;;;4.14;100.00;96812.00;4956008;28;20215;-66
2021/12/05 11:32:38;;;;;;;6.00;3.40;;;;;;;4.26;100.00;96809.97;4962096;28;20205;-66
2021/12/05 11:35:13;;;;;;;2.37;2.27;;;;;;;4.39;100.00;96814.00;4980994;28;20338;-66
2021/12/05 11:37:50;;;;;;;2.30;2.10;;;;;;;4.47;100.00;96812.25;4953192;28;20266;-68
2021/12/05 11:40:18;;;;;;;2.47;2.20;;;;;;;4.66;100.00;96810.41;4962072;28;20216;-67
2021/12/05 11:43:01;;;;;;;2.33;1.90;;;;;;;4.90;100.00;96817.56;4950301;28;20220;-66
2021/12/05 11:45:33;;;;;;;3.27;2.03;;;;;;;5.06;100.00;96816.81;4978446;28;20226;-67
2021/12/05 11:48:17;;;;;;;1.90;1.70;;;;;;;4.85;100.00;96811.13;4927647;28;21535;-67
2021/12/05 11:50:45;;;;;;;3.50;2.03;;;;;;;5.10;100.00;96814.69;4970777;28;20430;-67
2021/12/05 11:53:13;;;;;;;4.20;1.70;;;;;;;5.47;100.00;96813.47;4985939;28;20217;-67
2021/12/05 11:55:42;;;;;;;2.47;1.87;;;;;;;5.30;100.00;96803.94;4930625;28;20713;-66
2021/12/05 11:58:16;;;;;;;5.83;5.40;;;;;;;5.43;100.00;96798.22;4981008;28;20220;-67
2021/12/05 12:00:46;;;;;;;2.10;1.70;;;;;;;5.55;100.00;96804.00;4951927;28;20244;-67
2021/12/05 12:03:14;;;;;;;2.33;1.83;;;;;;;5.59;100.00;96803.50;4981699;28;20381;-66
2021/12/05 12:05:43;;;;;;;2.07;1.87;;;;;;;5.61;100.00;96795.47;4901273;28;20625;-66
2021/12/05 12:08:13;;;;;;;2.80;1.73;;;;;;;5.55;100.00;96801.38;4990550;28;20212;-66
2021/12/05 12:10:44;;;;;;;1.80;1.70;;;;;;;5.27;100.00;96801.63;4976594;28;20205;-66
2021/12/05 12:13:14;;;;;;;2.43;1.87;;;;;;;5.03;100.00;96805.78;4961191;28;20592;-67
2021/12/05 12:15:47;;;;;;;3.77;1.70;;;;;;;4.83;100.00;96813.94;4975891;28;20243;-66
2021/12/05 12:18:24;;;;;;;2.57;1.60;;;;;;;5.05;100.00;96811.72;4960645;28;20244;-66
2021/12/05 12:20:53;;;;;;;2.43;2.20;;;;;;;4.99;100.00;96810.56;4941052;28;20694;-67
2021/12/05 12:23:22;;;;;;;2.80;2.53;;;;;;;5.08;100.00;96811.38;4984354;28;20205;-67
2021/12/05 12:25:54;;;;;;;2.00;1.90;;;;;;;5.03;100.00;96805.78;4955136;28;20343;-66
2021/12/05 12:28:24;;;;;;;1.87;1.77;;;;;;;4.90;100.00;96814.09;4965211;28;20217;-66
2021/12/05 12:30:57;;;;;;;1.93;1.73;;;;;;;4.61;100.00;96812.66;4955502;28;20352;-66
2021/12/05 12:33:29;;;;;;;1.73;1.47;;;;;;;4.55;100.00;96816.72;4983538;28;20690;-66
2021/12/05 12:35:58;;;;;;;2.33;1.40;;;;;;;4.49;100.00;96818.16;4900816;28;21065;-68
2021/12/05 12:38:34;;;;;;;2.33;1.50;;;;;;;4.42;100.00;96821.56;4981700;28;21542;-67
2021/12/05 12:41:06;;;;;;;1.47;1.47;;;;;;;4.37;100.00;96818.59;4984789;28;20676;-68
2021/12/05 12:43:55;;;;;;;1.90;1.83;;;;;;;4.54;100.00;96820.31;4941300;28;20221;-66
2021/12/05 12:46:36;;;;;;;1.87;1.40;;;;;;;4.54;100.00;96816.88;4980120;28;20220;-66
2021/12/05 12:49:27;;;;;;;2.47;2.20;;;;;;;4.30;100.00;96819.19;4961766;28;20227;-67
2021/12/05 12:52:02;;;;;;;1.80;1.40;;;;;;;4.05;100.00;96823.41;4956855;28;20315;-67
2021/12/05 12:54:32;;;;;;;1.33;1.27;;;;;;;4.03;100.00;96826.22;4959182;28;20232;-66
2021/12/05 12:57:06;;;;;;;1.20;1.20;;;;;;;3.94;100.00;96821.03;4981673;28;20232;-67
2021/12/05 12:59:39;;;;;;;2.03;1.33;;;;;;;4.17;100.00;96826.63;4965341;28;20207;-66
2021/12/05 13:02:30;;;;;;;1.87;1.77;;;;;;;4.02;100.00;96821.94;4981041;28;20209;-67
2021/12/05 13:05:35;;;;;;;2.20;1.90;;;;;;;3.91;100.00;96817.75;4981292;28;20491;-67
2021/12/05 13:10:59;;;;;;;1.53;1.43;;;;;;;3.94;100.00;96813.97;4984322;28;20392;-67
2021/12/05 13:13:29;;;;;;;2.20;1.17;;;;;;;3.91;100.00;96825.63;4958667;28;20223;-66
2021/12/05 13:16:02;;;;;;;4.13;2.50;;;;;;;3.83;100.00;96822.94;4960403;28;20847;-66
2021/12/05 13:18:35;;;;;;;3.60;2.30;;;;;;;3.87;100.00;96828.69;4956222;28;20208;-65
2021/12/05 13:21:06;;;;;;;2.60;2.20;;;;;;;3.89;100.00;96824.09;4982246;28;20227;-67
2021/12/05 13:23:38;;;;;;;2.60;2.40;;;;;;;3.86;100.00;96827.03;4903390;28;20229;-66
2021/12/05 13:26:26;;;;;;;1.60;1.50;;;;;;;3.94;100.00;96826.28;4984011;28;20209;-66
2021/12/05 13:28:56;;;;;;;1.70;1.60;;;;;;;3.99;100.00;96816.16;4975815;28;20202;-67
2021/12/05 13:31:38;;;;;;;1.50;1.30;;;;;;;3.97;100.00;96826.78;4956689;28;20884;-67
2021/12/05 13:34:46;;;;;;;1.50;1.40;;;;;;;4.14;100.00;96832.19;4985409;28;20241;-67
2021/12/05 13:37:31;;;;;;;3.90;1.93;;;;;;;4.18;100.00;96838.75;4954953;28;20231;-67
2021/12/05 13:40:11;;;;;;;4.13;2.20;;;;;;;4.16;100.00;96841.53;4961377;28;20217;-66
2021/12/05 13:42:43;;;;;;;2.67;2.47;;;;;;;4.15;100.00;96842.50;4956997;28;20216;-66
2021/12/05 13:45:15;;;;;;;2.87;2.10;;;;;;;4.05;100.00;96841.78;4981332;28;20592;-68
2021/12/05 13:47:47;;;;;;;2.00;1.80;;;;;;;4.00;100.00;96836.16;4955943;28;20826;-67
2021/12/05 13:50:32;;;;;;;1.63;1.53;;;;;;;3.96;100.00;96838.25;4981168;28;20691;-68
2021/12/05 13:53:33;;;;;;;4.10;1.93;;;;;;;3.87;100.00;96842.63;4924895;28;20792;-67
2021/12/05 13:56:14;;;;;;;2.47;2.10;;;;;;;3.83;100.00;96840.44;4973719;28;20670;-67
2021/12/05 13:58:47;;;;;;;2.57;2.37;;;;;;;3.88;100.00;96830.31;4978361;28;21017;-68
2021/12/05 14:01:24;;;;;;;3.07;1.77;;;;;;;3.67;100.00;96844.56;4961627;28;20564;-67
2021/12/05 14:03:56;;;;;;;1.77;1.67;;;;;;;3.45;100.00;96846.63;4957357;28;20221;-68
2021/12/05 14:06:49;;;;;;;2.97;2.30;;;;;;;3.40;100.00;96848.84;4963553;28;20705;-65
2021/12/05 14:09:22;;;;;;;2.87;2.30;;;;;;;3.36;100.00;96844.88;4929078;28;20596;-67
2021/12/05 14:11:53;;;;;;;4.13;2.97;;;;;;;3.36;100.00;96842.25;4957494;28;20209;-67
2021/12/05 14:14:23;;;;;;;3.57;2.83;;;;;;;3.41;100.00;96842.66;4985108;28;20802;-66
2021/12/05 14:16:53;;;;;;;3.23;2.83;;;;;;;3.39;100.00;96844.59;4983306;28;20628;-67
2021/12/05 14:19:24;;;;;;;3.97;2.97;;;;;;;3.33;100.00;96861.69;4947503;28;20686;-67
2021/12/05 14:21:54;;;;;;;5.37;3.50;;;;;;;3.28;100.00;96861.31;4981796;28;20358;-68
2021/12/05 14:24:26;;;;;;;3.83;3.40;;;;;;;3.26;100.00;96867.69;4931912;28;20237;-66
2021/12/05 14:26:57;;;;;;;3.13;2.53;;;;;;;3.13;100.00;96871.44;4986517;28;20531;-67
2021/12/05 14:29:26;;;;;;;5.50;3.20;;;;;;;3.03;100.00;96871.50;4983207;28;20209;-66
2021/12/05 14:31:58;;;;;;;2.70;2.50;;;;;;;3.02;100.00;96861.97;4967998;28;20373;-67
2021/12/05 14:34:27;;;;;;;3.03;2.77;;;;;;;3.04;100.00;96869.69;4969974;28;20529;-66
2021/12/05 14:36:58;;;;;;;2.50;2.30;;;;;;;2.95;100.00;96871.38;4977532;28;20414;-67
2021/12/05 14:39:31;;;;;;;3.53;2.60;;;;;;;2.89;100.00;96871.97;4973336;28;20220;-66
2021/12/05 14:42:03;;;;;;;3.33;3.03;;;;;;;2.79;100.00;96874.59;4961881;28;20930;-67
2021/12/05 14:44:31;;;;;;;4.87;2.60;;;;;;;2.83;100.00;96880.38;4983997;28;20224;-66
2021/12/05 14:47:04;;;;;;;3.00;2.37;;;;;;;2.73;100.00;96885.63;4960804;28;21099;-68
2021/12/05 14:49:34;;;;;;;2.57;2.33;;;;;;;2.69;100.00;96882.50;4961638;28;20223;-66
2021/12/05 14:52:03;;;;;;;1.83;1.73;;;;;;;2.66;100.00;96885.41;4984937;28;20216;-67
2021/12/05 14:54:35;;;;;;;3.40;2.20;;;;;;;2.64;100.00;96887.31;4959735;28;20254;-66
2021/12/05 14:57:09;;;;;;;4.03;2.53;;;;;;;2.65;100.00;96893.38;4927805;28;20230;-68
2021/12/05 14:59:38;;;;;;;2.00;1.80;;;;;;;2.60;100.00;96894.63;4954152;28;20247;-66
2021/12/05 15:02:06;;;;;;;2.63;2.00;;;;;;;2.66;100.00;96895.03;4986529;28;20216;-68
2021/12/05 15:04:37;;;;;;;3.50;2.37;;;;;;;2.58;100.00;96901.78;4963865;28;20231;-66
2021/12/05 15:07:07;;;;;;;6.20;5.13;;;;;;;2.62;100.00;96898.88;4984531;28;20209;-67
2021/12/05 15:09:38;;;;;;;11.17;9.40;;;;;;;2.60;100.00;96905.09;4984124;28;20200;-66
2021/12/05 15:12:09;;;;;;;7.37;6.73;;;;;;;2.59;100.00;96897.38;4897161;28;20212;-65
2021/12/05 15:14:39;;;;;;;4.70;4.33;;;;;;;2.59;100.00;96913.06;4962129;28;20229;-67
2021/12/05 15:17:11;;;;;;;5.73;4.07;;;;;;;2.54;100.00;96907.44;4953193;28;20238;-66
2021/12/05 15:19:41;;;;;;;5.53;3.77;;;;;;;2.47;100.00;96915.03;4967404;28;20926;-67
2021/12/05 15:22:29;;;;;;;4.93;4.43;;;;;;;2.44;100.00;96915.28;4941282;28;20683;-66
2021/12/05 15:25:01;;;;;;;5.27;3.73;;;;;;;2.39;100.00;96915.72;4979645;28;20225;-67
2021/12/05 15:27:30;;;;;;;4.87;4.47;;;;;;;2.28;100.00;96916.69;4924458;28;20517;-66
2021/12/05 15:30:03;;;;;;;4.43;4.20;;;;;;;2.28;100.00;96927.13;4972247;28;20208;-67
2021/12/05 15:32:32;;;;;;;4.17;3.87;;;;;;;2.22;100.00;96926.84;4951843;28;20480;-67
2021/12/05 15:35:02;;;;;;;6.70;4.47;;;;;;;2.20;100.00;96931.41;4967309;28;20228;-68
2021/12/05 15:37:30;;;;;;;4.83;4.00;;;;;;;2.16;100.00;96931.66;4917343;28;20339;-66
2021/12/05 15:40:02;;;;;;;4.67;3.37;;;;;;;2.14;100.00;96931.00;4984044;28;20205;-66
2021/12/05 15:42:37;;;;;;;2.73;2.50;;;;;;;2.13;100.00;96934.56;4944839;28;20205;-66
2021/12/05 15:45:08;;;;;;;2.83;2.63;;;;;;;2.12;100.00;96937.31;4959709;28;20220;-67
2021/12/05 15:47:37;;;;;;;3.13;2.93;;;;;;;2.12;100.00;96930.28;4979218;28;20702;-66
2021/12/05 15:50:08;;;;;;;5.50;4.40;;;;;;;2.11;100.00;96933.06;4965117;28;20223;-68
2021/12/05 15:52:43;;;;;;;3.60;3.30;;;;;;;2.05;100.00;96936.19;4962162;23;20506;-74
2021/12/05 15:55:17;;;;;;;3.80;3.60;;;;;;;2.06;100.00;96943.06;4993721;28;20232;-77
2021/12/05 15:57:49;;;;;;;3.27;3.07;;;;;;;2.06;100.00;96943.91;4943749;28;22044;-74
2021/12/05 16:00:24;;;;;;;3.07;2.87;;;;;;;2.02;100.00;96950.38;4981553;28;20229;-72
2021/12/05 16:03:00;;;;;;;3.30;2.80;;;;;;;2.00;100.00;96949.69;4974345;28;20208;-73
2021/12/05 16:05:29;;;;;;;3.43;2.60;;;;;;;1.99;100.00;96942.81;4987378;28;20205;-72
2021/12/05 16:08:03;;;;;;;3.30;3.00;;;;;;;2.00;100.00;96947.09;4958635;28;20233;-73
2021/12/05 16:10:34;;;;;;;4.07;2.90;;;;;;;1.99;100.00;96946.25;5000786;28;20212;-72
2021/12/05 16:13:10;;;;;;;8.80;3.43;;;;;;;1.94;100.00;96945.81;4995414;28;20204;-73
2021/12/05 16:15:39;;;;;;;3.00;2.80;;;;;;;1.91;100.00;96953.94;4948321;28;20220;-75
2021/12/05 16:18:08;;;;;;;3.40;3.20;;;;;;;1.90;100.00;96951.47;5006821;28;20262;-74
2021/12/05 16:20:40;;;;;;;4.57;4.27;;;;;;;1.83;100.00;96957.22;4981285;28;20681;-77
2021/12/05 16:23:12;;;;;;;5.53;4.90;;;;;;;1.81;100.00;96953.91;4971129;28;20787;-73
2021/12/05 16:25:48;;;;;;;4.90;4.60;;;;;;;1.82;100.00;96954.75;4975589;28;20259;-73
2021/12/05 16:28:22;;;;;;;5.63;5.23;;;;;;;1.83;100.00;96954.59;4994712;28;20229;-74
2021/12/05 16:30:58;;;;;;;5.30;4.90;;;;;;;1.84;100.00;96947.59;4963788;28;20236;-74
2021/12/05 16:33:29;;;;;;;5.20;4.40;;;;;;;1.85;100.00;96962.31;4978503;28;20212;-73
2021/12/05 16:35:59;;;;;;;6.50;5.83;;;;;;;1.81;100.00;96960.94;4994058;28;20205;-72
2021/12/05 16:38:31;;;;;;;9.27;7.33;;;;;;;1.70;100.00;96960.06;4965769;28;20248;-72
2021/12/05 16:41:24;;;;;;;9.07;6.90;;;;;;;1.68;100.00;96969.00;5000199;28;20212;-73
2021/12/05 16:43:57;;;;;;;6.27;5.67;;;;;;;1.62;100.00;96967.75;4983433;28;21003;-73